BAW2573 LFBD-EGKK
Flight info
| Callsign | BAW2573 |
|---|---|
| Flight time | 1h 13m |
| Altitude | 34000 |
| Route | CNA DCT MANAK UY110 REN UP87 REVTU UP88 VASUX |
| Aircraft | A320/M-SDE3FGHIRWY/LB1 |
Departure
| Time | 2026-05-04 19:22 |
|---|---|
| Airport | Bordeaux–Mérignac Airport (LFBD) |
Arrival
| Time | 2026-05-04 20:35 |
|---|---|
| Airport | London Gatwick Airport (EGKK) |
| Time | Latitude | Longitude | Altitude | Speed | Heading |
|---|---|---|---|---|---|
| 2026-05-04 18:26 | 44.83218 | -0.70309 | 170 ft | 0 kts | 121° |
| 2026-05-04 19:10 | 44.83222 | -0.70318 | 169 ft | 4 kts | 121° |
| 2026-05-04 19:11 | 44.83236 | -0.70351 | 169 ft | 4 kts | 121° |
| 2026-05-04 19:11 | 44.83248 | -0.70378 | 169 ft | 4 kts | 110° |
| 2026-05-04 19:11 | 44.83250 | -0.70412 | 169 ft | 4 kts | 65° |
| 2026-05-04 19:11 | 44.83239 | -0.70434 | 169 ft | 1 kts | 45° |
| 2026-05-04 19:12 | 44.83237 | -0.70437 | 169 ft | 0 kts | 45° |
| 2026-05-04 19:15 | 44.83246 | -0.70424 | 169 ft | 7 kts | 45° |
| 2026-05-04 19:15 | 44.83288 | -0.70366 | 169 ft | 10 kts | 44° |
| 2026-05-04 19:15 | 44.83348 | -0.70317 | 169 ft | 11 kts | 348° |
| 2026-05-04 19:16 | 44.83413 | -0.70307 | 168 ft | 11 kts | 36° |
| 2026-05-04 19:16 | 44.83471 | -0.70225 | 168 ft | 13 kts | 48° |
| 2026-05-04 19:16 | 44.83536 | -0.70124 | 168 ft | 15 kts | 44° |
| 2026-05-04 19:16 | 44.83594 | -0.70045 | 168 ft | 12 kts | 44° |
| 2026-05-04 19:17 | 44.83665 | -0.70009 | 167 ft | 10 kts | 348° |
| 2026-05-04 19:17 | 44.83697 | -0.70027 | 167 ft | 0 kts | 336° |
| 2026-05-04 19:19 | 44.83714 | -0.70038 | 167 ft | 6 kts | 336° |
| 2026-05-04 19:20 | 44.83764 | -0.70068 | 167 ft | 9 kts | 336° |
| 2026-05-04 19:20 | 44.83800 | -0.70147 | 168 ft | 11 kts | 275° |
| 2026-05-04 19:20 | 44.83768 | -0.70251 | 168 ft | 13 kts | 228° |
| 2026-05-04 19:20 | 44.83751 | -0.70274 | 168 ft | 0 kts | 224° |
| 2026-05-04 19:21 | 44.83685 | -0.70368 | 168 ft | 45 kts | 225° |
| 2026-05-04 19:21 | 44.83308 | -0.70904 | 171 ft | 105 kts | 225° |
| 2026-05-04 19:21 | 44.82675 | -0.71805 | 175 ft | 151 kts | 224° |
| 2026-05-04 19:21 | 44.81898 | -0.72901 | 574 ft | 157 kts | 226° |
| 2026-05-04 19:22 | 44.81126 | -0.73991 | 1133 ft | 158 kts | 231° |
| 2026-05-04 19:22 | 44.80341 | -0.75135 | 1537 ft | 171 kts | 231° |
| 2026-05-04 19:22 | 44.79456 | -0.76417 | 1798 ft | 194 kts | 230° |
| 2026-05-04 19:22 | 44.78539 | -0.77911 | 2039 ft | 215 kts | 246° |
| 2026-05-04 19:23 | 44.78341 | -0.80010 | 2382 ft | 230 kts | 287° |
| 2026-05-04 19:23 | 44.79244 | -0.81901 | 2905 ft | 243 kts | 326° |
| 2026-05-04 19:23 | 44.80855 | -0.82661 | 3700 ft | 250 kts | 354° |
| 2026-05-04 19:23 | 44.82615 | -0.82663 | 4566 ft | 256 kts | 2° |
| 2026-05-04 19:24 | 44.84405 | -0.82458 | 5452 ft | 260 kts | 3° |
| 2026-05-04 19:24 | 44.86219 | -0.82261 | 6312 ft | 264 kts | 1° |
| 2026-05-04 19:24 | 44.88074 | -0.82132 | 6800 ft | 269 kts | 0° |
| 2026-05-04 19:24 | 44.89953 | -0.82074 | 6940 ft | 270 kts | 359° |
| 2026-05-04 19:25 | 44.91797 | -0.81919 | 6970 ft | 271 kts | 8° |
| 2026-05-04 19:25 | 44.93596 | -0.81117 | 6975 ft | 273 kts | 23° |
| 2026-05-04 19:25 | 44.95194 | -0.79654 | 6973 ft | 276 kts | 39° |
| 2026-05-04 19:25 | 44.96629 | -0.77846 | 6977 ft | 277 kts | 39° |
| 2026-05-04 19:26 | 44.98069 | -0.76034 | 6977 ft | 277 kts | 40° |
| 2026-05-04 19:26 | 44.99521 | -0.74209 | 6978 ft | 281 kts | 39° |
| 2026-05-04 19:26 | 45.00988 | -0.72368 | 6978 ft | 283 kts | 40° |
| 2026-05-04 19:26 | 45.02459 | -0.70520 | 6976 ft | 283 kts | 40° |
| 2026-05-04 19:27 | 45.03927 | -0.68673 | 6971 ft | 283 kts | 40° |
| 2026-05-04 19:27 | 45.05542 | -0.67135 | 6973 ft | 280 kts | 20° |
| 2026-05-04 19:27 | 45.07393 | -0.66573 | 7044 ft | 279 kts | 357° |
| 2026-05-04 19:27 | 45.09317 | -0.66944 | 7829 ft | 279 kts | 347° |
| 2026-05-04 19:28 | 45.11242 | -0.67408 | 8661 ft | 283 kts | 347° |
| 2026-05-04 19:28 | 45.13197 | -0.67872 | 9431 ft | 288 kts | 348° |
| 2026-05-04 19:28 | 45.15188 | -0.68341 | 10127 ft | 295 kts | 349° |
| 2026-05-04 19:28 | 45.17291 | -0.68839 | 10348 ft | 318 kts | 348° |
| 2026-05-04 19:29 | 45.19546 | -0.69379 | 10594 ft | 337 kts | 349° |
| 2026-05-04 19:29 | 45.21888 | -0.69938 | 11147 ft | 345 kts | 348° |
| 2026-05-04 19:29 | 45.24269 | -0.70506 | 11797 ft | 349 kts | 349° |
| 2026-05-04 19:29 | 45.26676 | -0.71081 | 12446 ft | 353 kts | 348° |
| 2026-05-04 19:30 | 45.29114 | -0.71665 | 13098 ft | 358 kts | 348° |
| 2026-05-04 19:30 | 45.31581 | -0.72255 | 13752 ft | 362 kts | 348° |
| 2026-05-04 19:30 | 45.34043 | -0.72847 | 14318 ft | 366 kts | 348° |
| 2026-05-04 19:30 | 45.36568 | -0.73453 | 14887 ft | 370 kts | 348° |
| 2026-05-04 19:31 | 45.39120 | -0.74066 | 15445 ft | 374 kts | 348° |
| 2026-05-04 19:31 | 45.41697 | -0.74686 | 16005 ft | 378 kts | 348° |
| 2026-05-04 19:31 | 45.44302 | -0.75314 | 16575 ft | 382 kts | 348° |
| 2026-05-04 19:31 | 45.46933 | -0.75953 | 17136 ft | 385 kts | 348° |
| 2026-05-04 19:32 | 45.49588 | -0.76599 | 17706 ft | 389 kts | 348° |
| 2026-05-04 19:32 | 45.52273 | -0.77253 | 18259 ft | 393 kts | 348° |
| 2026-05-04 19:32 | 45.54984 | -0.77912 | 18767 ft | 398 kts | 349° |
| 2026-05-04 19:32 | 45.57726 | -0.78574 | 19299 ft | 401 kts | 349° |
| 2026-05-04 19:33 | 45.60487 | -0.79240 | 19821 ft | 405 kts | 349° |
| 2026-05-04 19:33 | 45.63239 | -0.79907 | 20321 ft | 409 kts | 349° |
| 2026-05-04 19:33 | 45.66060 | -0.80594 | 20809 ft | 413 kts | 349° |
| 2026-05-04 19:33 | 45.68908 | -0.81287 | 21291 ft | 417 kts | 349° |
| 2026-05-04 19:34 | 45.71783 | -0.81986 | 21766 ft | 421 kts | 349° |
| 2026-05-04 19:34 | 45.74691 | -0.82696 | 22231 ft | 425 kts | 349° |
| 2026-05-04 19:34 | 45.77618 | -0.83412 | 22687 ft | 429 kts | 349° |
| 2026-05-04 19:34 | 45.80578 | -0.84138 | 23133 ft | 434 kts | 349° |
| 2026-05-04 19:35 | 45.83567 | -0.84873 | 23569 ft | 438 kts | 349° |
| 2026-05-04 19:35 | 45.86584 | -0.85618 | 23931 ft | 441 kts | 349° |
| 2026-05-04 19:35 | 45.89582 | -0.86357 | 24291 ft | 445 kts | 349° |
| 2026-05-04 19:35 | 45.92640 | -0.87109 | 24649 ft | 448 kts | 349° |
| 2026-05-04 19:36 | 45.95729 | -0.87866 | 25013 ft | 451 kts | 349° |
| 2026-05-04 19:36 | 45.98833 | -0.88626 | 25358 ft | 455 kts | 349° |
| 2026-05-04 19:36 | 46.01965 | -0.89392 | 25695 ft | 458 kts | 349° |
| 2026-05-04 19:36 | 46.05114 | -0.90168 | 26033 ft | 461 kts | 349° |
| 2026-05-04 19:37 | 46.08288 | -0.90954 | 26372 ft | 464 kts | 349° |
| 2026-05-04 19:37 | 46.11479 | -0.91745 | 26702 ft | 467 kts | 349° |
| 2026-05-04 19:37 | 46.14649 | -0.92530 | 27029 ft | 470 kts | 349° |
| 2026-05-04 19:37 | 46.17859 | -0.93460 | 27351 ft | 472 kts | 343° |
| 2026-05-04 19:38 | 46.20955 | -0.95040 | 27692 ft | 472 kts | 333° |
| 2026-05-04 19:38 | 46.23840 | -0.97290 | 28013 ft | 472 kts | 323° |
| 2026-05-04 19:38 | 46.26469 | -1.00120 | 28330 ft | 472 kts | 317° |
| 2026-05-04 19:38 | 46.29034 | -1.03102 | 28647 ft | 474 kts | 317° |
| 2026-05-04 19:39 | 46.31616 | -1.06093 | 28960 ft | 477 kts | 317° |
| 2026-05-04 19:39 | 46.34216 | -1.09102 | 29270 ft | 480 kts | 317° |
| 2026-05-04 19:39 | 46.36830 | -1.12129 | 29622 ft | 482 kts | 317° |
| 2026-05-04 19:39 | 46.39406 | -1.15117 | 30038 ft | 481 kts | 317° |
| 2026-05-04 19:40 | 46.42014 | -1.18150 | 30431 ft | 481 kts | 317° |
| 2026-05-04 19:40 | 46.44619 | -1.21188 | 30869 ft | 479 kts | 317° |
| 2026-05-04 19:40 | 46.47214 | -1.24210 | 31311 ft | 478 kts | 317° |
| 2026-05-04 19:40 | 46.49798 | -1.27222 | 31765 ft | 476 kts | 317° |
| 2026-05-04 19:41 | 46.52371 | -1.30230 | 31945 ft | 475 kts | 317° |
| 2026-05-04 19:41 | 46.57459 | -1.36203 | 31973 ft | 473 kts | 317° |
| 2026-05-04 19:42 | 46.63050 | -1.41335 | 31978 ft | 480 kts | 332° |
| 2026-05-04 19:42 | 46.69065 | -1.45576 | 31975 ft | 481 kts | 332° |
| 2026-05-04 19:43 | 46.75069 | -1.49818 | 31975 ft | 481 kts | 332° |
| 2026-05-04 19:43 | 46.81083 | -1.54099 | 31973 ft | 481 kts | 332° |
| 2026-05-04 19:44 | 46.87233 | -1.57790 | 31973 ft | 483 kts | 345° |
| 2026-05-04 19:44 | 46.93897 | -1.59038 | 31974 ft | 485 kts | 356° |
| 2026-05-04 19:45 | 47.00631 | -1.59698 | 31970 ft | 485 kts | 356° |
| 2026-05-04 19:45 | 47.07370 | -1.60387 | 31961 ft | 485 kts | 356° |
| 2026-05-04 19:46 | 47.14052 | -1.61073 | 31975 ft | 485 kts | 356° |
| 2026-05-04 19:46 | 47.20790 | -1.61836 | 31976 ft | 486 kts | 355° |
| 2026-05-04 19:47 | 47.27519 | -1.62785 | 31971 ft | 486 kts | 354° |
| 2026-05-04 19:47 | 47.34253 | -1.63757 | 31967 ft | 486 kts | 354° |
| 2026-05-04 19:48 | 47.40939 | -1.64687 | 31963 ft | 486 kts | 355° |
| 2026-05-04 19:48 | 47.47673 | -1.65632 | 31961 ft | 486 kts | 355° |
| 2026-05-04 19:49 | 47.54407 | -1.66595 | 31962 ft | 486 kts | 354° |
| 2026-05-04 19:49 | 47.61145 | -1.67561 | 31985 ft | 486 kts | 355° |
| 2026-05-04 19:50 | 47.67811 | -1.68516 | 31967 ft | 484 kts | 355° |
| 2026-05-04 19:50 | 47.74504 | -1.69476 | 31966 ft | 483 kts | 355° |
| 2026-05-04 19:51 | 47.81202 | -1.70453 | 31971 ft | 484 kts | 355° |
| 2026-05-04 19:51 | 47.87910 | -1.71421 | 31973 ft | 484 kts | 355° |
| 2026-05-04 19:52 | 47.94619 | -1.72384 | 31976 ft | 484 kts | 355° |
| 2026-05-04 19:52 | 48.00195 | -1.73192 | 31973 ft | 484 kts | 355° |
| 2026-05-04 19:53 | 48.08000 | -1.74187 | 31972 ft | 484 kts | 0° |
| 2026-05-04 19:53 | 48.14738 | -1.74251 | 31975 ft | 484 kts | 0° |
| 2026-05-04 19:54 | 48.21476 | -1.74340 | 31973 ft | 484 kts | 0° |
| 2026-05-04 19:54 | 48.28167 | -1.74432 | 31977 ft | 484 kts | 0° |
| 2026-05-04 19:55 | 48.34910 | -1.74514 | 31983 ft | 484 kts | 0° |
| 2026-05-04 19:55 | 48.41650 | -1.74592 | 31988 ft | 484 kts | 0° |
| 2026-05-04 19:56 | 48.48383 | -1.74668 | 31988 ft | 484 kts | 0° |
| 2026-05-04 19:56 | 48.55115 | -1.74754 | 31989 ft | 484 kts | 0° |
| 2026-05-04 19:57 | 48.61799 | -1.74836 | 31994 ft | 484 kts | 0° |
| 2026-05-04 19:57 | 48.68527 | -1.74908 | 31995 ft | 484 kts | 0° |
| 2026-05-04 19:58 | 48.75260 | -1.74990 | 31997 ft | 483 kts | 0° |
| 2026-05-04 19:58 | 48.81986 | -1.75082 | 32000 ft | 483 kts | 0° |
| 2026-05-04 19:59 | 48.88667 | -1.75166 | 31999 ft | 483 kts | 0° |
| 2026-05-04 19:59 | 48.95402 | -1.75155 | 32001 ft | 485 kts | 1° |
| 2026-05-04 20:00 | 49.02157 | -1.74864 | 32000 ft | 485 kts | 2° |
| 2026-05-04 20:00 | 49.08911 | -1.74522 | 32003 ft | 485 kts | 2° |
| 2026-05-04 20:01 | 49.15613 | -1.74233 | 32005 ft | 485 kts | 2° |
| 2026-05-04 20:01 | 49.22360 | -1.73978 | 32002 ft | 485 kts | 1° |
| 2026-05-04 20:02 | 49.29104 | -1.73739 | 32003 ft | 485 kts | 1° |
| 2026-05-04 20:02 | 49.35845 | -1.73481 | 32003 ft | 484 kts | 1° |
| 2026-05-04 20:03 | 49.42540 | -1.73222 | 32007 ft | 484 kts | 1° |
| 2026-05-04 20:03 | 49.49277 | -1.72959 | 32006 ft | 484 kts | 1° |
| 2026-05-04 20:04 | 49.56008 | -1.72705 | 32005 ft | 483 kts | 2° |
| 2026-05-04 20:04 | 49.62599 | -1.70960 | 32004 ft | 481 kts | 20° |
| 2026-05-04 20:05 | 49.68889 | -1.67479 | 32005 ft | 481 kts | 21° |
| 2026-05-04 20:05 | 49.75046 | -1.64087 | 31676 ft | 472 kts | 21° |
| 2026-05-04 20:05 | 49.77811 | -1.62564 | 31444 ft | 468 kts | 21° |
| 2026-05-04 20:06 | 49.80650 | -1.61001 | 31204 ft | 466 kts | 21° |
| 2026-05-04 20:06 | 49.83100 | -1.59649 | 31006 ft | 465 kts | 21° |
| 2026-05-04 20:06 | 49.85436 | -1.58356 | 30817 ft | 464 kts | 21° |
| 2026-05-04 20:06 | 49.87253 | -1.57347 | 30664 ft | 463 kts | 21° |
| 2026-05-04 20:07 | 49.88918 | -1.56418 | 30518 ft | 462 kts | 21° |
| 2026-05-04 20:07 | 49.90849 | -1.55338 | 30370 ft | 461 kts | 21° |
| 2026-05-04 20:07 | 49.92605 | -1.54355 | 30231 ft | 461 kts | 21° |
| 2026-05-04 20:08 | 49.95130 | -1.52940 | 29897 ft | 457 kts | 21° |
| 2026-05-04 20:08 | 49.96558 | -1.52140 | 29603 ft | 455 kts | 21° |
| 2026-05-04 20:08 | 49.99236 | -1.50639 | 29123 ft | 451 kts | 21° |
| 2026-05-04 20:08 | 50.02188 | -1.49025 | 28622 ft | 447 kts | 20° |
| 2026-05-04 20:09 | 50.05099 | -1.47546 | 28124 ft | 443 kts | 19° |
| 2026-05-04 20:09 | 50.07037 | -1.46608 | 27798 ft | 440 kts | 18° |
| 2026-05-04 20:09 | 50.08359 | -1.45982 | 27577 ft | 438 kts | 18° |
| 2026-05-04 20:09 | 50.11190 | -1.44659 | 27099 ft | 435 kts | 18° |
| 2026-05-04 20:10 | 50.13318 | -1.43665 | 26747 ft | 432 kts | 18° |
| 2026-05-04 20:10 | 50.16104 | -1.42348 | 26288 ft | 429 kts | 18° |
| 2026-05-04 20:10 | 50.18865 | -1.41019 | 25843 ft | 425 kts | 19° |
| 2026-05-04 20:10 | 50.21524 | -1.39717 | 25423 ft | 422 kts | 19° |
| 2026-05-04 20:11 | 50.23797 | -1.38591 | 25062 ft | 419 kts | 19° |
| 2026-05-04 20:11 | 50.25997 | -1.37497 | 24700 ft | 417 kts | 18° |
| 2026-05-04 20:11 | 50.28528 | -1.36240 | 24310 ft | 414 kts | 18° |
| 2026-05-04 20:11 | 50.31167 | -1.34935 | 23885 ft | 413 kts | 18° |
| 2026-05-04 20:12 | 50.33896 | -1.33588 | 23423 ft | 411 kts | 18° |
| 2026-05-04 20:12 | 50.36576 | -1.32262 | 22958 ft | 408 kts | 18° |
| 2026-05-04 20:12 | 50.39272 | -1.30929 | 22506 ft | 405 kts | 18° |
| 2026-05-04 20:12 | 50.41949 | -1.29603 | 22042 ft | 402 kts | 19° |
| 2026-05-04 20:13 | 50.44608 | -1.28283 | 21584 ft | 399 kts | 19° |
| 2026-05-04 20:13 | 50.47246 | -1.26974 | 21114 ft | 397 kts | 19° |
| 2026-05-04 20:13 | 50.49796 | -1.25387 | 20621 ft | 393 kts | 29° |
| 2026-05-04 20:13 | 50.52078 | -1.23092 | 20156 ft | 387 kts | 40° |
| 2026-05-04 20:14 | 50.54140 | -1.20393 | 19671 ft | 385 kts | 42° |
| 2026-05-04 20:14 | 50.56185 | -1.17698 | 19193 ft | 382 kts | 42° |
| 2026-05-04 20:14 | 50.58182 | -1.15074 | 18761 ft | 378 kts | 42° |
| 2026-05-04 20:14 | 50.60191 | -1.12431 | 18354 ft | 373 kts | 42° |
| 2026-05-04 20:15 | 50.62181 | -1.09807 | 17799 ft | 371 kts | 42° |
| 2026-05-04 20:15 | 50.64151 | -1.07208 | 17241 ft | 369 kts | 41° |
| 2026-05-04 20:15 | 50.66048 | -1.04531 | 16756 ft | 363 kts | 48° |
| 2026-05-04 20:15 | 50.67661 | -1.01505 | 16298 ft | 359 kts | 51° |
| 2026-05-04 20:16 | 50.69231 | -0.98473 | 15824 ft | 355 kts | 51° |
| 2026-05-04 20:16 | 50.70784 | -0.95472 | 15359 ft | 352 kts | 51° |
| 2026-05-04 20:16 | 50.72326 | -0.92495 | 14894 ft | 349 kts | 51° |
| 2026-05-04 20:16 | 50.73852 | -0.89547 | 14442 ft | 345 kts | 51° |
| 2026-05-04 20:17 | 50.75346 | -0.86663 | 13995 ft | 343 kts | 51° |
| 2026-05-04 20:17 | 50.76851 | -0.83755 | 13506 ft | 340 kts | 51° |
| 2026-05-04 20:17 | 50.78334 | -0.80886 | 13195 ft | 332 kts | 51° |
| 2026-05-04 20:17 | 50.79766 | -0.78109 | 13059 ft | 320 kts | 52° |
| 2026-05-04 20:18 | 50.80898 | -0.75172 | 12920 ft | 308 kts | 66° |
| 2026-05-04 20:18 | 50.81528 | -0.71996 | 12749 ft | 299 kts | 79° |
| 2026-05-04 20:18 | 50.81898 | -0.68782 | 12454 ft | 295 kts | 79° |
| 2026-05-04 20:18 | 50.82268 | -0.65595 | 12107 ft | 294 kts | 79° |
| 2026-05-04 20:19 | 50.82637 | -0.62429 | 11758 ft | 292 kts | 79° |
| 2026-05-04 20:19 | 50.82997 | -0.59336 | 11559 ft | 290 kts | 79° |
| 2026-05-04 20:19 | 50.83362 | -0.56188 | 11293 ft | 291 kts | 79° |
| 2026-05-04 20:19 | 50.83723 | -0.53050 | 11015 ft | 290 kts | 80° |
| 2026-05-04 20:20 | 50.84080 | -0.49918 | 10740 ft | 289 kts | 80° |
| 2026-05-04 20:20 | 50.84437 | -0.46797 | 10470 ft | 288 kts | 80° |
| 2026-05-04 20:20 | 50.84794 | -0.43689 | 10202 ft | 286 kts | 80° |
| 2026-05-04 20:20 | 50.85150 | -0.40591 | 9937 ft | 286 kts | 80° |
| 2026-05-04 20:21 | 50.85507 | -0.37496 | 9651 ft | 285 kts | 80° |
| 2026-05-04 20:21 | 50.85858 | -0.34416 | 9365 ft | 284 kts | 80° |
| 2026-05-04 20:21 | 50.86545 | -0.28336 | 8791 ft | 281 kts | 80° |
| 2026-05-04 20:22 | 50.86890 | -0.25298 | 8506 ft | 280 kts | 80° |
| 2026-05-04 20:22 | 50.87234 | -0.22277 | 8224 ft | 278 kts | 80° |
| 2026-05-04 20:22 | 50.87574 | -0.19267 | 7943 ft | 277 kts | 80° |
| 2026-05-04 20:22 | 50.87908 | -0.16272 | 7665 ft | 275 kts | 80° |
| 2026-05-04 20:23 | 50.88238 | -0.13313 | 7390 ft | 272 kts | 80° |
| 2026-05-04 20:23 | 50.88565 | -0.10383 | 7119 ft | 269 kts | 79° |
| 2026-05-04 20:23 | 50.89147 | -0.07616 | 6850 ft | 265 kts | 55° |
| 2026-05-04 20:23 | 50.90511 | -0.05744 | 6570 ft | 261 kts | 23° |
| 2026-05-04 20:24 | 50.92248 | -0.05305 | 6314 ft | 258 kts | 352° |
| 2026-05-04 20:24 | 50.93884 | -0.06377 | 6029 ft | 257 kts | 321° |
| 2026-05-04 20:24 | 50.94930 | -0.08624 | 5745 ft | 256 kts | 294° |
| 2026-05-04 20:24 | 50.95646 | -0.11198 | 5461 ft | 254 kts | 297° |
| 2026-05-04 20:25 | 50.96467 | -0.13661 | 5182 ft | 252 kts | 300° |
| 2026-05-04 20:25 | 50.97320 | -0.16068 | 4906 ft | 249 kts | 301° |
| 2026-05-04 20:25 | 50.98165 | -0.18453 | 4625 ft | 247 kts | 298° |
| 2026-05-04 20:25 | 50.98766 | -0.20991 | 4333 ft | 245 kts | 287° |
| 2026-05-04 20:26 | 50.99207 | -0.23588 | 4040 ft | 242 kts | 286° |
| 2026-05-04 20:26 | 50.99618 | -0.26109 | 3786 ft | 230 kts | 285° |
| 2026-05-04 20:26 | 50.99997 | -0.28482 | 3508 ft | 219 kts | 286° |
| 2026-05-04 20:26 | 51.00367 | -0.30802 | 3238 ft | 220 kts | 286° |
| 2026-05-04 20:27 | 51.00758 | -0.33251 | 3043 ft | 233 kts | 285° |
| 2026-05-04 20:27 | 51.01157 | -0.35758 | 3005 ft | 235 kts | 286° |
| 2026-05-04 20:27 | 51.01558 | -0.38275 | 3005 ft | 236 kts | 285° |
| 2026-05-04 20:27 | 51.01960 | -0.40805 | 3003 ft | 236 kts | 286° |
| 2026-05-04 20:28 | 51.02363 | -0.43330 | 3008 ft | 236 kts | 285° |
| 2026-05-04 20:28 | 51.02766 | -0.45863 | 3004 ft | 237 kts | 285° |
| 2026-05-04 20:28 | 51.03169 | -0.48392 | 3003 ft | 237 kts | 286° |
| 2026-05-04 20:28 | 51.03567 | -0.50891 | 3015 ft | 237 kts | 286° |
| 2026-05-04 20:29 | 51.04216 | -0.53249 | 2998 ft | 232 kts | 315° |
| 2026-05-04 20:29 | 51.05549 | -0.54467 | 3007 ft | 215 kts | 349° |
| 2026-05-04 20:29 | 51.06976 | -0.54624 | 2999 ft | 199 kts | 9° |
| 2026-05-04 20:29 | 51.08278 | -0.54054 | 3007 ft | 192 kts | 27° |
| 2026-05-04 20:30 | 51.09376 | -0.52876 | 3004 ft | 190 kts | 45° |
| 2026-05-04 20:30 | 51.10172 | -0.51223 | 3008 ft | 189 kts | 63° |
| 2026-05-04 20:30 | 51.10585 | -0.49288 | 3039 ft | 182 kts | 77° |
| 2026-05-04 20:30 | 51.10848 | -0.47413 | 3020 ft | 166 kts | 76° |
| 2026-05-04 20:31 | 51.11092 | -0.45698 | 2998 ft | 152 kts | 76° |
| 2026-05-04 20:31 | 51.11317 | -0.44103 | 2996 ft | 145 kts | 76° |
| 2026-05-04 20:31 | 51.11536 | -0.42550 | 2917 ft | 143 kts | 76° |
| 2026-05-04 20:31 | 51.11751 | -0.41019 | 2778 ft | 141 kts | 76° |
| 2026-05-04 20:32 | 51.11964 | -0.39504 | 2611 ft | 140 kts | 76° |
| 2026-05-04 20:32 | 51.12174 | -0.38004 | 2433 ft | 138 kts | 76° |
| 2026-05-04 20:32 | 51.12383 | -0.36514 | 2246 ft | 138 kts | 76° |
| 2026-05-04 20:32 | 51.12591 | -0.35028 | 2060 ft | 137 kts | 76° |
| 2026-05-04 20:33 | 51.12798 | -0.33543 | 1868 ft | 138 kts | 76° |
| 2026-05-04 20:33 | 51.13003 | -0.32074 | 1724 ft | 135 kts | 76° |
| 2026-05-04 20:33 | 51.13202 | -0.30649 | 1510 ft | 134 kts | 76° |
| 2026-05-04 20:33 | 51.13402 | -0.29207 | 1333 ft | 133 kts | 76° |
| 2026-05-04 20:34 | 51.13601 | -0.27777 | 1150 ft | 132 kts | 76° |
| 2026-05-04 20:34 | 51.13801 | -0.26342 | 966 ft | 132 kts | 76° |
| 2026-05-04 20:34 | 51.14000 | -0.24906 | 781 ft | 134 kts | 75° |
| 2026-05-04 20:34 | 51.14201 | -0.23458 | 601 ft | 134 kts | 76° |
| 2026-05-04 20:35 | 51.14402 | -0.22009 | 420 ft | 134 kts | 75° |
| 2026-05-04 20:35 | 51.14602 | -0.20561 | 249 ft | 134 kts | 76° |
| 2026-05-04 20:35 | 51.14796 | -0.19182 | 211 ft | 103 kts | 77° |
| 2026-05-04 20:35 | 51.14883 | -0.18533 | 206 ft | 16 kts | 78° |
| 2026-05-04 20:36 | 51.14918 | -0.18282 | 211 ft | 33 kts | 77° |
| 2026-05-04 20:36 | 51.15007 | -0.17898 | 213 ft | 35 kts | 57° |
| 2026-05-04 20:36 | 51.15106 | -0.17761 | 206 ft | 1 kts | 357° |